Time;durP1;ratioP1;P1;durP2;ratioP2;P2;SDS_P1;SDS_P2;PMS_P1;PMS_P2;Temp;Humidity;BMP_temperature;BMP_pressure;BME280_temperature;BME280_humidity;BME280_pressure;Samples;Min_cycle;Max_cycle;Signal;HPM_P1;HPM_P2
2021/08/29 00:01:58;;;;;;;8.27;7.57;;;13.10;99.90;;;;;;4979133;28;20527;-80
2021/08/29 00:04:24;;;;;;;8.67;8.07;;;12.90;99.90;;;;;;4978467;28;20257;-80
2021/08/29 00:06:50;;;;;;;8.03;7.43;;;12.90;99.90;;;;;;4961321;28;20173;-81
2021/08/29 00:09:15;;;;;;;8.73;8.03;;;12.80;99.90;;;;;;4978786;28;20247;-80
2021/08/29 00:11:41;;;;;;;8.07;7.47;;;12.90;99.90;;;;;;4978574;28;20176;-80
2021/08/29 00:14:07;;;;;;;7.50;6.83;;;12.90;99.90;;;;;;4978246;28;20255;-80
2021/08/29 00:16:33;;;;;;;8.50;7.80;;;12.80;99.90;;;;;;4978427;28;20175;-80
2021/08/29 00:18:58;;;;;;;7.83;7.23;;;12.80;99.90;;;;;;4978341;28;20247;-80
2021/08/29 00:21:24;;;;;;;9.03;8.33;;;12.80;99.90;;;;;;4978092;28;20258;-80
2021/08/29 00:23:50;;;;;;;9.33;8.50;;;12.80;99.90;;;;;;4977896;28;20222;-79
2021/08/29 00:26:16;;;;;;;8.13;7.53;;;12.80;99.90;;;;;;4977906;28;20172;-80
2021/08/29 00:28:41;;;;;;;8.80;8.07;;;12.80;99.90;;;;;;4960196;28;20176;-80
2021/08/29 00:31:07;;;;;;;8.40;7.77;;;12.90;99.90;;;;;;4978101;28;20196;-80
2021/08/29 00:33:33;;;;;;;8.23;7.63;;;12.90;99.90;;;;;;4977584;28;20232;-80
2021/08/29 00:35:59;;;;;;;8.13;7.43;;;12.90;99.90;;;;;;4977902;28;20176;-81
2021/08/29 00:38:24;;;;;;;8.23;7.53;;;12.90;99.90;;;;;;4960940;28;20183;-80
2021/08/29 00:40:50;;;;;;;8.57;7.97;;;12.90;99.90;;;;;;4977638;28;20168;-81
2021/08/29 00:43:17;;;;;;;8.73;7.73;;;13.00;99.90;;;;;;4978503;28;20595;-80
2021/08/29 00:45:43;;;;;;;8.60;7.90;;;13.00;99.90;;;;;;4978666;28;20314;-81
2021/08/29 00:48:10;;;;;;;8.63;8.03;;;12.90;99.90;;;;;;4977724;28;20583;-82
2021/08/29 00:50:37;;;;;;;8.00;7.40;;;12.90;99.90;;;;;;4977558;28;20572;-81
2021/08/29 00:53:07;;;;;;;8.30;7.60;;;12.90;99.90;;;;;;4977224;28;20170;-81
2021/08/29 00:55:36;;;;;;;8.63;7.83;;;12.90;99.90;;;;;;4959656;28;20200;-80
2021/08/29 00:58:02;;;;;;;8.60;7.90;;;12.80;99.90;;;;;;4976965;28;20180;-81
2021/08/29 01:00:29;;;;;;;9.17;8.47;;;12.70;99.90;;;;;;4976995;28;20179;-82
2021/08/29 01:02:56;;;;;;;8.23;7.30;;;12.80;99.90;;;;;;4977044;28;20219;-80
2021/08/29 01:05:24;;;;;;;9.23;8.43;;;12.80;99.90;;;;;;4976451;28;20308;-81
2021/08/29 01:08:03;;;;;;;8.70;8.03;;;12.90;99.90;;;;;;4976651;28;20172;-81
2021/08/29 01:10:50;;;;;;;8.20;7.40;;;12.90;99.90;;;;;;4977606;28;20646;-81
2021/08/29 01:13:25;;;;;;;7.70;7.00;;;12.80;99.90;;;;;;4976352;28;20631;-82
2021/08/29 01:15:54;;;;;;;7.07;6.47;;;12.90;99.90;;;;;;4976734;28;20535;-80
2021/08/29 01:18:22;;;;;;;9.60;6.97;;;12.80;99.90;;;;;;4976623;28;20180;-81
2021/08/29 01:21:07;;;;;;;8.97;8.07;;;12.80;99.90;;;;;;4976223;28;20543;-80
2021/08/29 01:23:38;;;;;;;8.67;7.97;;;12.70;99.90;;;;;;4975426;28;20180;-81
2021/08/29 01:26:35;;;;;;;9.50;8.73;;;12.80;99.90;;;;;;4975357;28;20175;-81
2021/08/29 01:29:03;;;;;;;7.50;6.80;;;12.80;99.90;;;;;;4976999;28;20168;-81
2021/08/29 01:31:33;;;;;;;9.00;8.30;;;12.80;99.90;;;;;;4976346;28;20211;-82
2021/08/29 01:34:02;;;;;;;8.60;7.83;;;12.80;99.90;;;;;;4977159;28;20253;-80
2021/08/29 01:36:32;;;;;;;8.33;7.73;;;12.80;99.90;;;;;;4974897;28;20189;-81
2021/08/29 01:38:59;;;;;;;8.20;7.40;;;12.80;99.90;;;;;;4976200;28;20176;-80
2021/08/29 01:41:26;;;;;;;7.87;7.20;;;12.80;99.90;;;;;;4976483;28;20180;-81
2021/08/29 01:43:52;;;;;;;7.97;7.20;;;12.80;99.90;;;;;;4975770;28;20295;-81
2021/08/29 01:46:19;;;;;;;8.03;7.37;;;12.80;99.90;;;;;;4976311;28;20197;-81
2021/08/29 01:48:45;;;;;;;8.07;7.43;;;12.80;99.90;;;;;;4975979;28;20176;-81
2021/08/29 01:51:12;;;;;;;8.90;7.47;;;12.80;99.90;;;;;;4976453;28;20175;-81
2021/08/29 01:53:38;;;;;;;12.50;11.43;;;12.80;99.90;;;;;;4974714;28;20237;-81
2021/08/29 01:56:06;;;;;;;12.73;11.53;;;12.80;99.90;;;;;;4974848;28;20203;-81
2021/08/29 01:58:33;;;;;;;14.13;12.93;;;12.70;99.90;;;;;;4976708;28;20172;-79
2021/08/29 02:01:01;;;;;;;14.10;12.80;;;12.70;99.90;;;;;;4974736;28;20172;-79
2021/08/29 02:03:31;;;;;;;14.73;13.33;;;12.70;99.90;;;;;;4976316;28;20179;-81
2021/08/29 02:06:20;;;;;;;14.17;12.67;;;12.80;99.90;;;;;;4976379;28;20188;-79
2021/08/29 02:09:00;;;;;;;14.77;13.27;;;12.70;99.90;;;;;;4976308;28;20184;-80
2021/08/29 02:11:33;;;;;;;14.20;12.80;;;12.70;99.90;;;;;;4976019;28;20177;-80
2021/08/29 02:14:02;;;;;;;14.40;13.10;;;12.60;99.90;;;;;;4974553;28;20203;-79
2021/08/29 02:16:28;;;;;;;14.87;12.50;;;12.70;99.90;;;;;;4974751;28;20178;-80
2021/08/29 02:18:55;;;;;;;14.27;12.97;;;12.70;99.90;;;;;;4975587;28;20632;-79
2021/08/29 02:21:26;;;;;;;15.50;13.90;;;12.80;99.90;;;;;;4974038;28;20186;-80
2021/08/29 02:23:52;;;;;;;16.50;14.60;;;12.70;99.90;;;;;;4975469;28;20219;-80
2021/08/29 02:26:21;;;;;;;16.87;15.00;;;12.70;99.90;;;;;;4974037;28;20592;-80
2021/08/29 02:28:47;;;;;;;18.00;14.67;;;12.70;99.90;;;;;;4975542;28;20262;-80
2021/08/29 02:31:13;;;;;;;16.67;14.83;;;12.70;99.90;;;;;;4976080;28;20204;-80
2021/08/29 02:33:42;;;;;;;16.03;13.80;;;12.70;99.90;;;;;;4977192;28;20545;-79
2021/08/29 02:36:07;;;;;;;17.03;14.33;;;12.80;99.90;;;;;;4979216;28;20168;-80
2021/08/29 02:38:34;;;;;;;16.10;14.40;;;12.70;99.90;;;;;;4978319;28;20352;-79
2021/08/29 02:41:02;;;;;;;17.33;15.00;;;12.80;99.90;;;;;;4980296;28;20655;-80
2021/08/29 02:43:29;;;;;;;15.67;14.07;;;12.70;99.90;;;;;;4978805;28;20590;-81
2021/08/29 02:45:55;;;;;;;16.13;14.40;;;12.70;99.90;;;;;;4978372;28;20614;-79
2021/08/29 02:48:22;;;;;;;18.63;14.63;;;12.70;99.90;;;;;;4979906;28;20696;-81
2021/08/29 02:50:51;;;;;;;17.60;15.23;;;12.70;99.90;;;;;;4979307;28;20185;-79
2021/08/29 02:53:18;;;;;;;17.50;14.33;;;12.80;99.90;;;;;;4979990;28;20569;-80
2021/08/29 02:55:55;;;;;;;18.07;14.57;;;12.80;99.90;;;;;;4980260;28;20666;-81
2021/08/29 02:58:21;;;;;;;16.27;14.50;;;13.20;99.90;;;;;;4978562;28;20172;-81
2021/08/29 03:00:46;;;;;;;17.13;14.63;;;12.70;99.90;;;;;;4981119;28;20184;-79
2021/08/29 03:03:13;;;;;;;16.30;14.50;;;12.80;99.90;;;;;;4984008;28;20256;-78
2021/08/29 03:05:39;;;;;;;16.03;14.43;;;12.80;99.90;;;;;;4982299;28;20205;-79
2021/08/29 03:08:05;;;;;;;16.47;14.63;;;12.90;99.90;;;;;;4981209;28;20182;-79
2021/08/29 03:10:32;;;;;;;17.33;15.40;;;12.80;99.90;;;;;;4981713;28;20543;-78
2021/08/29 03:13:02;;;;;;;17.07;15.27;;;12.80;99.90;;;;;;4982060;28;20184;-78
2021/08/29 03:15:30;;;;;;;17.57;15.50;;;12.70;99.90;;;;;;4981787;28;20288;-78
2021/08/29 03:17:57;;;;;;;16.23;14.53;;;12.70;99.90;;;;;;4981945;28;20187;-78
2021/08/29 03:20:27;;;;;;;18.30;15.57;;;12.70;99.90;;;;;;4981307;28;20177;-78
2021/08/29 03:22:53;;;;;;;17.40;15.33;;;12.60;99.90;;;;;;4982141;28;20184;-78
2021/08/29 03:25:19;;;;;;;18.70;15.97;;;12.60;99.90;;;;;;4964165;28;20257;-78
2021/08/29 03:27:55;;;;;;;21.43;16.23;;;12.50;99.90;;;;;;4982079;28;20209;-78
2021/08/29 03:30:20;;;;;;;17.17;15.03;;;12.60;99.90;;;;;;4981858;28;20160;-78
2021/08/29 03:32:46;;;;;;;18.00;15.93;;;12.70;99.90;;;;;;4982010;28;20184;-78
2021/08/29 03:35:13;;;;;;;17.73;14.27;;;12.70;99.90;;;;;;4964109;28;20231;-78
2021/08/29 03:37:41;;;;;;;16.87;14.40;;;12.60;99.90;;;;;;4981990;28;20172;-79
2021/08/29 03:40:07;;;;;;;19.07;15.67;;;12.60;99.90;;;;;;4982239;28;20583;-78
2021/08/29 03:42:34;;;;;;;18.80;15.50;;;12.60;99.90;;;;;;4981794;28;20204;-78
2021/08/29 03:45:02;;;;;;;17.93;15.43;;;12.60;99.90;;;;;;4981048;28;20216;-78
2021/08/29 03:47:28;;;;;;;16.10;14.20;;;12.60;99.90;;;;;;4981974;28;20552;-78
2021/08/29 03:49:54;;;;;;;20.57;15.40;;;12.70;99.90;;;;;;4982020;28;20176;-79
2021/08/29 03:52:20;;;;;;;16.67;14.87;;;12.70;99.90;;;;;;4981640;28;20636;-78
2021/08/29 03:54:49;;;;;;;16.67;14.87;;;12.70;99.90;;;;;;4981517;28;20217;-78
2021/08/29 03:57:15;;;;;;;15.97;14.27;;;12.70;99.90;;;;;;4981981;28;20188;-78
2021/08/29 03:59:41;;;;;;;15.80;14.17;;;12.70;99.90;;;;;;4981926;28;20182;-78
2021/08/29 04:02:08;;;;;;;15.13;13.53;;;12.70;99.90;;;;;;4963145;28;20187;-78
2021/08/29 04:04:34;;;;;;;16.67;14.80;;;12.70;99.90;;;;;;4982138;28;20204;-78
2021/08/29 04:07:05;;;;;;;17.43;14.53;;;12.80;99.90;;;;;;4964190;28;20177;-78
2021/08/29 04:09:32;;;;;;;17.20;14.53;;;12.80;99.90;;;;;;4981664;28;20222;-78
2021/08/29 04:11:59;;;;;;;15.60;13.90;;;12.80;99.90;;;;;;4981752;28;20171;-79
2021/08/29 04:14:26;;;;;;;20.47;15.23;;;12.70;99.90;;;;;;4981428;28;20207;-78
2021/08/29 04:16:55;;;;;;;15.93;14.23;;;12.80;99.90;;;;;;4964155;28;20184;-78
2021/08/29 04:19:22;;;;;;;15.83;14.03;;;12.80;99.90;;;;;;4981568;28;20202;-78
2021/08/29 04:21:48;;;;;;;16.03;14.23;;;12.80;99.90;;;;;;4981781;28;20180;-79
2021/08/29 04:24:14;;;;;;;16.20;14.60;;;12.80;99.90;;;;;;4981557;28;20204;-78
2021/08/29 04:26:40;;;;;;;16.50;14.67;;;12.80;99.90;;;;;;4981659;28;20175;-78
2021/08/29 04:29:06;;;;;;;18.57;14.93;;;12.90;99.90;;;;;;4980995;28;20236;-77
2021/08/29 04:31:33;;;;;;;18.30;14.43;;;12.90;99.90;;;;;;4981339;28;20210;-78
2021/08/29 04:34:04;;;;;;;18.73;15.30;;;12.90;99.90;;;;;;4963996;28;20253;-78
2021/08/29 04:36:30;;;;;;;17.73;14.73;;;12.90;99.90;;;;;;4981753;28;20191;-78
2021/08/29 04:39:03;;;;;;;18.37;15.00;;;12.90;99.90;;;;;;4981703;28;20325;-78
2021/08/29 04:41:29;;;;;;;18.43;15.93;;;12.90;99.90;;;;;;4981180;28;20384;-78
2021/08/29 04:43:55;;;;;;;17.70;15.33;;;12.80;99.90;;;;;;4980902;28;20713;-78
2021/08/29 04:46:20;;;;;;;18.27;14.13;;;12.80;99.90;;;;;;4980979;28;20188;-78
2021/08/29 04:48:46;;;;;;;15.80;13.93;;;12.80;99.90;;;;;;4981100;28;20190;-78
2021/08/29 04:51:11;;;;;;;16.57;14.83;;;12.80;99.90;;;;;;4980339;28;20175;-78
2021/08/29 04:53:37;;;;;;;17.27;14.20;;;12.80;99.90;;;;;;4963986;28;20178;-78
2021/08/29 04:56:03;;;;;;;18.70;14.47;;;12.90;99.90;;;;;;4979704;28;20197;-78
2021/08/29 04:58:28;;;;;;;18.97;15.63;;;12.80;99.90;;;;;;4962940;28;20190;-78
2021/08/29 05:00:54;;;;;;;19.57;14.93;;;12.80;99.90;;;;;;4965389;28;20184;-79
2021/08/29 05:03:20;;;;;;;17.63;15.53;;;12.80;99.90;;;;;;4963996;28;20184;-78
2021/08/29 05:05:45;;;;;;;18.93;15.40;;;12.90;99.90;;;;;;4981830;28;20580;-78
2021/08/29 05:08:11;;;;;;;18.87;14.33;;;12.90;99.90;;;;;;4981691;28;20538;-78
2021/08/29 05:10:37;;;;;;;18.83;15.40;;;12.90;99.90;;;;;;4964416;28;20632;-77
2021/08/29 05:13:03;;;;;;;23.50;16.50;;;12.90;99.90;;;;;;4981563;28;20587;-78
2021/08/29 05:15:28;;;;;;;20.47;15.70;;;12.90;99.90;;;;;;4980988;28;20591;-78
2021/08/29 05:17:54;;;;;;;22.53;16.40;;;12.90;99.90;;;;;;4981708;28;20203;-78
2021/08/29 05:20:19;;;;;;;21.03;16.07;;;12.90;99.90;;;;;;4964003;28;20177;-78
2021/08/29 05:22:45;;;;;;;16.83;14.57;;;12.90;99.90;;;;;;4982235;28;20639;-78
2021/08/29 05:25:11;;;;;;;20.17;15.33;;;12.90;99.90;;;;;;4981611;28;20210;-78
2021/08/29 05:27:36;;;;;;;19.63;16.30;;;12.90;99.90;;;;;;4980912;28;20663;-78
2021/08/29 05:30:02;;;;;;;18.50;15.83;;;13.00;99.90;;;;;;4982045;28;20250;-79
2021/08/29 05:32:28;;;;;;;19.83;15.40;;;13.00;99.90;;;;;;4963974;28;20174;-78
2021/08/29 05:34:53;;;;;;;16.47;14.70;;;12.90;99.90;;;;;;4980513;28;20200;-79
2021/08/29 05:37:19;;;;;;;20.93;16.07;;;12.90;99.90;;;;;;4981324;28;20542;-78
2021/08/29 05:39:45;;;;;;;18.17;15.83;;;12.90;99.90;;;;;;4981801;28;20194;-79
2021/08/29 05:42:10;;;;;;;18.67;15.33;;;12.90;99.90;;;;;;4981011;28;20178;-78
2021/08/29 05:44:36;;;;;;;22.87;16.13;;;12.90;99.90;;;;;;4963482;28;20678;-78
2021/08/29 05:47:02;;;;;;;18.60;16.30;;;12.90;99.90;;;;;;4979352;28;20180;-78
2021/08/29 05:49:27;;;;;;;22.13;16.40;;;12.90;99.90;;;;;;4978871;28;20180;-79
2021/08/29 05:51:53;;;;;;;20.97;16.67;;;13.00;99.90;;;;;;4978243;28;20179;-79
2021/08/29 05:54:18;;;;;;;18.53;15.97;;;13.00;99.90;;;;;;4977733;28;20644;-79
2021/08/29 05:56:44;;;;;;;18.17;15.80;;;13.00;99.90;;;;;;4978212;28;20599;-80
2021/08/29 05:59:10;;;;;;;18.93;16.00;;;13.00;99.90;;;;;;4978702;28;20275;-79
2021/08/29 06:01:35;;;;;;;18.00;14.73;;;13.10;99.90;;;;;;4978714;28;20190;-79
2021/08/29 06:04:01;;;;;;;16.23;14.53;;;13.10;99.90;;;;;;4978064;28;20204;-78
2021/08/29 06:06:27;;;;;;;18.17;14.77;;;13.10;99.90;;;;;;4977461;28;20175;-78
2021/08/29 06:08:53;;;;;;;15.60;13.67;;;13.10;99.90;;;;;;4977719;28;20178;-78
2021/08/29 06:11:18;;;;;;;16.40;14.57;;;13.10;99.90;;;;;;4977895;28;20234;-80
2021/08/29 06:13:44;;;;;;;15.87;14.17;;;13.10;99.90;;;;;;4961296;28;20202;-79
2021/08/29 06:16:10;;;;;;;16.83;14.70;;;13.10;99.90;;;;;;4977704;28;20221;-79
2021/08/29 06:18:35;;;;;;;17.03;14.70;;;13.10;99.90;;;;;;4977499;28;20178;-79
2021/08/29 06:21:01;;;;;;;16.37;14.67;;;13.00;99.90;;;;;;4960974;28;20177;-80
2021/08/29 06:23:27;;;;;;;16.30;14.50;;;13.00;99.90;;;;;;4978442;28;20190;-79
2021/08/29 06:25:52;;;;;;;16.30;14.20;;;13.10;99.90;;;;;;4978154;28;20293;-78
2021/08/29 06:28:18;;;;;;;16.00;14.33;;;13.10;99.90;;;;;;4978774;28;20168;-79
2021/08/29 06:30:44;;;;;;;17.30;15.00;;;13.10;99.90;;;;;;4978295;28;20252;-79
2021/08/29 06:33:09;;;;;;;15.57;13.97;;;13.20;99.90;;;;;;4977803;28;20547;-78
2021/08/29 06:35:35;;;;;;;15.97;14.10;;;13.20;99.90;;;;;;4977607;28;20207;-79
2021/08/29 06:38:01;;;;;;;16.47;14.77;;;13.20;99.90;;;;;;4962108;28;20179;-78
2021/08/29 06:40:26;;;;;;;16.33;14.63;;;13.20;99.90;;;;;;4961655;28;20664;-79
2021/08/29 06:42:52;;;;;;;16.27;14.57;;;13.00;99.90;;;;;;4961052;28;20190;-79
2021/08/29 06:45:17;;;;;;;16.73;14.97;;;13.10;99.90;;;;;;5009750;23;20234;-80
2021/08/29 06:47:43;;;;;;;17.87;15.40;;;13.20;99.90;;;;;;4997942;28;20198;-80
2021/08/29 06:50:09;;;;;;;17.10;15.00;;;13.10;99.90;;;;;;4996663;28;20174;-80
2021/08/29 06:52:35;;;;;;;18.30;15.90;;;13.10;99.90;;;;;;4996055;28;20585;-79
2021/08/29 06:55:00;;;;;;;19.80;15.47;;;13.10;99.90;;;;;;4996513;28;20229;-80
2021/08/29 06:57:27;;;;;;;17.43;15.60;;;13.20;99.90;;;;;;4996601;28;20204;-78
2021/08/29 06:59:53;;;;;;;19.93;14.90;;;13.00;99.90;;;;;;4995397;28;20268;-79
2021/08/29 07:02:21;;;;;;;19.60;16.17;;;12.90;99.90;;;;;;4998795;28;20594;-80
2021/08/29 07:04:47;;;;;;;22.07;17.23;;;13.00;99.90;;;;;;4995623;28;20326;-81
2021/08/29 07:07:13;;;;;;;20.53;16.80;;;13.00;99.90;;;;;;4995365;28;20556;-78
2021/08/29 07:09:42;;;;;;;19.37;15.57;;;13.00;99.90;;;;;;4995531;28;20173;-79
2021/08/29 07:12:11;;;;;;;20.50;15.57;;;13.10;99.90;;;;;;4995879;28;20200;-78
2021/08/29 07:14:38;;;;;;;17.23;15.47;;;13.00;99.90;;;;;;4997012;28;20568;-78
2021/08/29 07:17:04;;;;;;;16.57;14.60;;;13.10;99.90;;;;;;4997096;28;20198;-79
2021/08/29 07:19:30;;;;;;;17.60;14.43;;;13.10;99.90;;;;;;4998663;28;20182;-79
2021/08/29 07:21:56;;;;;;;14.43;12.93;;;13.10;99.90;;;;;;5001331;28;20526;-79
2021/08/29 07:24:22;;;;;;;14.20;12.77;;;13.00;99.90;;;;;;5001589;28;20196;-80
2021/08/29 07:26:47;;;;;;;13.90;12.60;;;13.00;99.90;;;;;;5001272;28;20180;-79
2021/08/29 07:29:13;;;;;;;15.23;13.07;;;13.00;99.90;;;;;;5001609;28;20259;-79
2021/08/29 07:31:39;;;;;;;14.97;12.63;;;13.00;99.90;;;;;;5001758;28;20174;-79
2021/08/29 07:34:04;;;;;;;13.90;12.50;;;13.10;99.90;;;;;;5001703;28;20572;-79
2021/08/29 07:36:30;;;;;;;15.50;13.37;;;13.00;99.90;;;;;;5000151;28;20315;-79
2021/08/29 07:38:55;;;;;;;14.77;13.27;;;13.00;99.90;;;;;;5000314;28;20179;-79
2021/08/29 07:41:21;;;;;;;15.80;14.07;;;13.00;99.90;;;;;;5000919;28;20182;-79
2021/08/29 07:43:47;;;;;;;14.97;13.37;;;13.10;99.90;;;;;;5003379;28;20175;-79
2021/08/29 07:46:12;;;;;;;15.37;13.77;;;13.20;99.90;;;;;;5001970;28;20286;-79
2021/08/29 07:48:38;;;;;;;15.47;12.87;;;13.20;99.90;;;;;;5002253;28;20673;-79
2021/08/29 07:51:04;;;;;;;13.37;12.07;;;13.20;99.90;;;;;;5000230;28;20282;-79
2021/08/29 07:53:29;;;;;;;13.00;11.63;;;13.20;99.90;;;;;;5002201;28;20175;-79
2021/08/29 07:55:55;;;;;;;8.63;7.93;;;13.10;99.90;;;;;;5000477;28;20361;-79
2021/08/29 07:58:21;;;;;;;9.37;8.50;;;13.10;99.90;;;;;;5002112;28;20302;-79
2021/08/29 08:00:47;;;;;;;9.40;8.40;;;13.20;99.90;;;;;;5001619;28;20167;-79
2021/08/29 08:03:12;;;;;;;8.30;7.63;;;13.20;99.90;;;;;;5000500;28;20224;-79
2021/08/29 08:05:38;;;;;;;8.57;7.87;;;13.20;99.90;;;;;;4998925;28;20223;-79
2021/08/29 08:08:04;;;;;;;8.23;7.30;;;13.30;99.90;;;;;;4999732;28;20203;-79
2021/08/29 08:10:31;;;;;;;8.40;7.70;;;13.30;99.90;;;;;;4999912;28;20163;-79
2021/08/29 08:12:57;;;;;;;7.67;7.00;;;13.30;99.90;;;;;;5000869;28;20163;-80
2021/08/29 08:15:23;;;;;;;7.07;6.47;;;13.30;99.90;;;;;;5001423;28;20209;-80
2021/08/29 08:17:48;;;;;;;7.90;7.10;;;13.30;99.90;;;;;;5001136;28;20173;-80
2021/08/29 08:20:14;;;;;;;6.87;6.27;;;13.30;99.90;;;;;;5000844;28;20182;-80
2021/08/29 08:22:41;;;;;;;5.63;5.23;;;13.30;99.90;;;;;;4999815;28;20175;-80
2021/08/29 08:25:08;;;;;;;3.47;3.17;;;13.30;99.90;;;;;;4999157;28;20261;-79
2021/08/29 08:27:33;;;;;;;3.43;3.23;;;13.30;99.90;;;;;;4998627;28;20175;-80
2021/08/29 08:29:59;;;;;;;3.90;3.60;;;13.30;99.90;;;;;;4997280;28;20534;-78
2021/08/29 08:32:25;;;;;;;2.13;2.03;;;13.40;99.90;;;;;;4999799;28;20578;-79
2021/08/29 08:34:51;;;;;;;3.23;2.93;;;13.30;99.90;;;;;;4998735;28;20693;-78
2021/08/29 08:37:16;;;;;;;3.73;3.43;;;13.30;99.90;;;;;;5001809;28;20172;-79
2021/08/29 08:39:42;;;;;;;3.67;3.37;;;13.30;99.90;;;;;;5001523;28;20741;-79
2021/08/29 08:42:08;;;;;;;3.30;3.10;;;13.30;99.90;;;;;;5001769;28;20182;-79
2021/08/29 08:44:34;;;;;;;3.27;2.97;;;13.50;99.90;;;;;;5001304;28;20207;-79
2021/08/29 08:47:04;;;;;;;3.50;3.20;;;13.50;99.90;;;;;;5000970;28;20160;-78
2021/08/29 08:49:33;;;;;;;3.47;3.17;;;13.50;99.90;;;;;;5000680;28;20172;-79
2021/08/29 08:52:02;;;;;;;3.40;3.20;;;13.60;99.90;;;;;;5002185;28;20168;-79
2021/08/29 08:54:30;;;;;;;3.37;3.17;;;13.50;99.90;;;;;;5001100;28;20168;-80
2021/08/29 08:56:57;;;;;;;4.00;3.70;;;13.50;99.90;;;;;;4999989;28;20183;-79
2021/08/29 08:59:23;;;;;;;4.03;3.73;;;13.50;99.90;;;;;;4999512;28;20171;-79
2021/08/29 09:01:49;;;;;;;5.27;4.77;;;13.60;99.90;;;;;;4999713;28;20240;-79
2021/08/29 09:04:15;;;;;;;5.50;5.00;;;13.60;99.90;;;;;;5002097;28;20353;-80
2021/08/29 09:06:42;;;;;;;6.07;5.57;;;13.60;99.90;;;;;;5001333;28;20199;-80
2021/08/29 09:09:07;;;;;;;5.93;5.30;;;13.70;99.90;;;;;;5001763;28;20179;-80
2021/08/29 09:11:34;;;;;;;7.70;7.10;;;13.70;99.90;;;;;;4998416;28;20230;-80
2021/08/29 09:14:00;;;;;;;6.97;6.37;;;13.80;99.90;;;;;;5000886;28;20197;-80
2021/08/29 09:16:27;;;;;;;7.77;7.17;;;13.80;99.90;;;;;;5001181;28;20210;-80
2021/08/29 09:18:56;;;;;;;7.73;7.03;;;13.90;99.90;;;;;;5001335;28;20186;-80
2021/08/29 09:21:25;;;;;;;8.60;7.60;;;13.90;99.90;;;;;;5002086;28;20251;-80
2021/08/29 09:23:52;;;;;;;6.77;6.27;;;14.00;99.90;;;;;;5001429;28;20171;-80
2021/08/29 09:26:19;;;;;;;7.37;6.83;;;14.00;99.90;;;;;;5000558;28;20227;-80
2021/08/29 09:28:46;;;;;;;6.83;6.33;;;14.00;99.90;;;;;;5000599;28;20203;-80
2021/08/29 09:31:14;;;;;;;7.00;6.40;;;14.10;99.90;;;;;;5001034;28;20168;-80
2021/08/29 09:33:40;;;;;;;7.00;6.40;;;14.00;99.90;;;;;;5000998;28;20175;-80
2021/08/29 09:36:05;;;;;;;8.23;7.53;;;14.00;99.90;;;;;;5000041;28;20274;-80
2021/08/29 09:38:39;;;;;;;7.43;6.73;;;14.10;99.90;;;;;;5000358;28;20222;-80
2021/08/29 09:41:23;;;;;;;7.20;6.60;;;14.10;99.90;;;;;;4999521;28;20719;-80
2021/08/29 09:43:49;;;;;;;8.53;7.83;;;14.20;99.90;;;;;;4999773;28;20190;-80
2021/08/29 09:46:15;;;;;;;7.67;6.97;;;14.20;99.90;;;;;;4998177;28;20211;-80
2021/08/29 09:48:50;;;;;;;7.97;7.27;;;14.30;99.90;;;;;;4999904;28;20256;-80
2021/08/29 09:51:16;;;;;;;8.20;7.50;;;14.30;99.90;;;;;;4997712;28;20635;-80
2021/08/29 09:53:46;;;;;;;8.60;7.87;;;14.30;99.90;;;;;;4996470;28;20215;-79
2021/08/29 09:56:20;;;;;;;9.03;8.23;;;14.20;99.90;;;;;;4994350;28;20180;-74
2021/08/29 09:58:46;;;;;;;9.03;8.23;;;14.30;99.90;;;;;;4993809;28;20639;-76
2021/08/29 10:01:13;;;;;;;8.07;7.27;;;14.50;99.90;;;;;;4994559;28;20168;-74
2021/08/29 10:03:47;;;;;;;8.83;7.93;;;14.50;99.90;;;;;;4994515;28;20511;-74
2021/08/29 10:06:15;;;;;;;9.10;8.23;;;14.50;99.90;;;;;;4993586;28;20257;-76
2021/08/29 10:08:42;;;;;;;7.93;7.23;;;14.50;99.90;;;;;;4991832;28;20187;-75
2021/08/29 10:11:09;;;;;;;8.50;7.80;;;14.50;99.90;;;;;;4991643;28;20202;-76
2021/08/29 10:13:35;;;;;;;9.67;8.03;;;14.60;99.90;;;;;;4993441;28;20251;-74
2021/08/29 10:16:03;;;;;;;8.60;7.90;;;14.60;99.90;;;;;;4990064;28;20204;-75
2021/08/29 10:18:30;;;;;;;7.90;7.20;;;14.70;99.90;;;;;;4989184;28;20706;-75
2021/08/29 10:20:58;;;;;;;8.07;7.37;;;14.70;99.90;;;;;;4972965;28;20271;-74
2021/08/29 10:23:23;;;;;;;8.40;7.53;;;14.70;99.90;;;;;;4976341;28;20275;-74
2021/08/29 10:25:52;;;;;;;7.77;7.07;;;14.70;99.90;;;;;;4982954;28;20286;-74
2021/08/29 10:28:24;;;;;;;7.33;6.73;;;14.70;99.90;;;;;;4991724;28;20813;-74
2021/08/29 10:30:53;;;;;;;7.30;6.73;;;14.80;99.90;;;;;;4975569;28;20717;-75
2021/08/29 10:33:19;;;;;;;6.60;6.00;;;15.00;99.90;;;;;;4994224;28;20180;-74
2021/08/29 10:35:47;;;;;;;5.83;5.30;;;15.00;99.90;;;;;;4984564;28;20213;-75
2021/08/29 10:38:13;;;;;;;8.17;5.37;;;15.00;99.90;;;;;;4984526;28;20640;-75
2021/08/29 10:40:40;;;;;;;4.90;4.50;;;15.00;99.90;;;;;;4986409;28;20175;-75
2021/08/29 10:43:06;;;;;;;5.20;4.80;;;15.10;99.90;;;;;;4984378;28;20188;-74
2021/08/29 10:45:32;;;;;;;5.27;4.80;;;15.10;99.90;;;;;;4971186;28;20223;-75
2021/08/29 10:47:58;;;;;;;5.10;4.70;;;15.10;99.90;;;;;;4984511;28;20624;-75
2021/08/29 10:50:24;;;;;;;5.60;5.10;;;15.10;99.90;;;;;;4988844;28;20184;-75
2021/08/29 10:52:50;;;;;;;5.23;4.83;;;15.20;99.90;;;;;;4981049;28;20180;-74
2021/08/29 10:55:18;;;;;;;5.50;5.00;;;15.20;99.90;;;;;;4990796;28;20234;-75
2021/08/29 10:57:46;;;;;;;4.40;4.10;;;15.30;99.90;;;;;;4991674;28;20638;-75
2021/08/29 11:00:12;;;;;;;5.20;4.80;;;15.40;99.90;;;;;;4974998;28;20670;-75
2021/08/29 11:02:46;;;;;;;4.90;4.50;;;15.50;99.90;;;;;;4992727;28;20180;-75
2021/08/29 11:05:35;;;;;;;4.73;4.33;;;15.50;99.90;;;;;;4986786;28;20204;-75
2021/08/29 11:08:23;;;;;;;4.47;4.03;;;15.50;99.90;;;;;;4965142;28;20639;-75
2021/08/29 11:10:49;;;;;;;3.60;3.40;;;15.50;99.90;;;;;;4988958;28;20195;-74
2021/08/29 11:13:36;;;;;;;6.23;4.20;;;15.60;99.90;;;;;;4989776;28;20219;-74
2021/08/29 11:16:14;;;;;;;4.17;3.87;;;15.60;99.90;;;;;;4976465;28;20227;-74
2021/08/29 11:19:01;;;;;;;4.23;3.83;;;15.60;99.90;;;;;;4973626;28;20172;-74
2021/08/29 11:21:47;;;;;;;4.83;4.00;;;15.60;99.90;;;;;;4990668;28;20184;-74
2021/08/29 11:24:13;;;;;;;5.10;3.57;;;15.60;99.90;;;;;;4975936;28;20207;-75
2021/08/29 11:26:42;;;;;;;4.40;3.03;;;15.60;99.90;;;;;;4966957;28;20636;-75
2021/08/29 11:29:40;;;;;;;2.83;2.63;;;15.50;99.90;;;;;;4989738;28;20226;-75
2021/08/29 11:32:09;;;;;;;2.70;2.50;;;15.30;99.90;;;;;;4948491;28;20193;-75
2021/08/29 11:34:36;;;;;;;3.23;2.90;;;15.40;99.90;;;;;;4987719;28;20191;-74
2021/08/29 11:37:23;;;;;;;4.60;2.90;;;15.30;99.90;;;;;;4988076;28;20651;-74
2021/08/29 11:40:03;;;;;;;2.00;1.90;;;15.30;99.90;;;;;;4990635;28;20180;-74
2021/08/29 11:42:29;;;;;;;3.90;2.90;;;15.20;99.90;;;;;;4986945;28;20596;-74
2021/08/29 11:44:57;;;;;;;2.80;2.60;;;15.30;99.90;;;;;;4977710;28;20698;-74
2021/08/29 11:47:40;;;;;;;1.97;1.87;;;15.30;99.90;;;;;;4989874;28;20724;-76
2021/08/29 11:50:08;;;;;;;3.17;2.17;;;15.20;99.90;;;;;;4975862;28;20176;-74
2021/08/29 11:52:38;;;;;;;1.80;1.70;;;15.30;99.90;;;;;;4986030;28;20180;-75
2021/08/29 11:55:10;;;;;;;1.73;1.63;;;15.20;99.90;;;;;;4991953;28;20203;-75
2021/08/29 11:57:53;;;;;;;1.80;1.70;;;15.20;99.90;;;;;;4992223;28;20192;-74
2021/08/29 12:00:28;;;;;;;1.30;1.20;;;15.20;99.90;;;;;;4987986;28;20235;-74
2021/08/29 12:02:54;;;;;;;1.90;1.70;;;15.10;99.90;;;;;;4986832;28;20274;-74
2021/08/29 12:05:21;;;;;;;2.20;1.27;;;15.10;99.90;;;;;;4992845;28;20207;-76
2021/08/29 12:07:55;;;;;;;1.10;1.00;;;14.90;99.90;;;;;;4988396;28;20303;-75
2021/08/29 12:10:23;;;;;;;1.80;1.40;;;14.90;99.90;;;;;;4972559;28;20186;-75
2021/08/29 12:12:50;;;;;;;2.07;1.10;;;14.90;99.90;;;;;;4987305;28;20176;-75
2021/08/29 12:15:17;;;;;;;1.20;0.90;;;14.80;99.90;;;;;;4985613;28;20709;-74
2021/08/29 12:17:45;;;;;;;0.73;0.73;;;14.90;99.90;;;;;;4990862;28;20238;-75
2021/08/29 12:20:11;;;;;;;1.03;0.93;;;14.90;99.90;;;;;;4990300;28;20288;-75
2021/08/29 12:22:38;;;;;;;1.33;1.00;;;14.90;99.90;;;;;;4986762;28;20264;-75
2021/08/29 12:25:04;;;;;;;0.80;0.80;;;15.00;99.90;;;;;;4970242;28;20262;-75
2021/08/29 12:27:31;;;;;;;0.87;0.77;;;14.90;99.90;;;;;;4990149;28;20184;-75
2021/08/29 12:29:59;;;;;;;0.90;0.90;;;15.00;99.90;;;;;;4976146;28;20234;-74
2021/08/29 12:32:31;;;;;;;0.90;0.80;;;15.10;99.90;;;;;;4993683;28;20268;-76
2021/08/29 12:35:09;;;;;;;1.07;1.00;;;15.20;99.90;;;;;;4973550;28;20634;-78
2021/08/29 12:37:41;;;;;;;1.30;1.20;;;15.30;99.90;;;;;;4975808;28;20195;-77
2021/08/29 12:40:09;;;;;;;1.70;1.60;;;15.30;99.90;;;;;;4969807;28;20184;-77
2021/08/29 12:42:39;;;;;;;3.40;1.77;;;15.30;99.90;;;;;;4992271;28;20600;-77